Time;durP1;ratioP1;P1;durP2;ratioP2;P2;SDS_P1;SDS_P2;PMS_P1;PMS_P2;Temp;Humidity;BMP_temperature;BMP_pressure;BME280_temperature;BME280_humidity;BME280_pressure;Samples;Min_cycle;Max_cycle;Signal;HPM_P1;HPM_P2
2021/09/28 00:01:47;;;;;;;13.20;3.40;;;;;;;15.37;72.45;102035.69;5114830;28;20043;-52
2021/09/28 00:04:15;;;;;;;8.70;2.92;;;;;;;15.34;72.15;102039.78;5114930;28;20085;-51
2021/09/28 00:06:43;;;;;;;8.52;3.05;;;;;;;15.31;72.33;102034.81;5114968;28;20108;-54
2021/09/28 00:09:10;;;;;;;10.40;2.83;;;;;;;15.30;72.95;102044.16;5111991;28;20481;-55
2021/09/28 00:11:38;;;;;;;7.78;2.47;;;;;;;15.32;72.47;102043.88;5112600;28;20050;-51
2021/09/28 00:14:06;;;;;;;7.45;3.00;;;;;;;15.32;73.18;102052.13;5113491;28;20039;-55
2021/09/28 00:16:33;;;;;;;8.80;2.97;;;;;;;15.33;73.28;102060.09;5114739;28;20031;-55
2021/09/28 00:19:01;;;;;;;10.63;3.10;;;;;;;15.30;72.28;102051.59;5101353;28;20044;-52
2021/09/28 00:21:29;;;;;;;9.70;3.28;;;;;;;15.27;72.16;102054.84;5114720;28;20040;-55
2021/09/28 00:23:56;;;;;;;13.90;3.00;;;;;;;15.24;72.92;102053.47;5114402;28;20046;-55
2021/09/28 00:26:24;;;;;;;8.88;3.05;;;;;;;15.18;72.68;102060.06;5112945;28;20043;-55
2021/09/28 00:28:51;;;;;;;8.73;2.63;;;;;;;15.16;73.19;102062.22;5100608;28;20043;-49
2021/09/28 00:31:19;;;;;;;10.82;3.33;;;;;;;15.14;73.05;102072.66;5111372;28;20040;-52
2021/09/28 00:33:46;;;;;;;10.70;2.90;;;;;;;15.17;73.91;102074.84;5114390;28;20444;-53
2021/09/28 00:36:14;;;;;;;8.85;2.90;;;;;;;15.13;73.10;102076.50;5114725;28;20044;-56
2021/09/28 00:38:42;;;;;;;9.85;3.00;;;;;;;15.13;73.58;102066.34;5112695;28;20036;-49
2021/09/28 00:41:09;;;;;;;14.65;4.07;;;;;;;15.12;73.21;102072.09;5109930;28;20505;-53
2021/09/28 00:43:48;;;;;;;7.82;2.80;;;;;;;15.15;73.68;102078.97;5114161;28;20051;-53
2021/09/28 00:46:17;;;;;;;8.90;2.80;;;;;;;15.13;72.67;102073.75;5113866;28;20032;-51
2021/09/28 00:48:45;;;;;;;9.85;2.75;;;;;;;15.10;72.90;102074.28;5110820;28;20044;-52
2021/09/28 00:51:13;;;;;;;10.95;3.08;;;;;;;15.07;72.88;102072.06;5112884;28;20039;-52
2021/09/28 00:53:42;;;;;;;8.98;2.60;;;;;;;15.06;73.33;102068.50;5114063;28;20038;-49
2021/09/28 00:56:13;;;;;;;9.95;2.97;;;;;;;15.07;73.32;102070.16;5114226;28;20370;-52
2021/09/28 00:58:41;;;;;;;7.80;2.67;;;;;;;15.06;73.00;102070.44;5111815;28;20040;-52
2021/09/28 01:01:10;;;;;;;12.55;2.90;;;;;;;15.06;73.30;102071.25;5100311;28;20074;-49
2021/09/28 01:03:38;;;;;;;11.27;3.30;;;;;;;15.06;73.34;102070.44;5114175;28;20131;-52
2021/09/28 01:06:06;;;;;;;10.05;2.85;;;;;;;15.04;73.27;102080.84;5113534;28;20043;-53
2021/09/28 01:08:34;;;;;;;9.25;3.00;;;;;;;14.99;73.11;102069.84;5114219;28;20482;-52
2021/09/28 01:11:03;;;;;;;10.25;2.95;;;;;;;14.94;73.29;102078.88;5110145;28;20039;-53
2021/09/28 01:13:30;;;;;;;11.07;2.83;;;;;;;14.94;73.65;102078.88;5113018;28;20048;-51
2021/09/28 01:16:01;;;;;;;8.10;2.58;;;;;;;14.89;73.11;102079.69;5112285;28;20043;-51
2021/09/28 01:18:33;;;;;;;9.20;2.67;;;;;;;14.90;73.39;102083.25;5113523;28;20042;-51
2021/09/28 01:21:01;;;;;;;8.82;2.78;;;;;;;14.95;73.96;102082.44;5107173;28;20055;-51
2021/09/28 01:23:29;;;;;;;9.70;2.78;;;;;;;14.99;74.09;102080.81;5113879;28;20039;-51
2021/09/28 01:25:56;;;;;;;9.82;3.17;;;;;;;14.98;74.10;102074.50;5113285;28;20114;-52
2021/09/28 01:28:24;;;;;;;8.90;2.90;;;;;;;14.94;73.47;102084.38;5113097;28;20039;-53
2021/09/28 01:30:52;;;;;;;10.77;2.55;;;;;;;14.92;74.04;102086.56;5109616;28;20073;-52
2021/09/28 01:33:19;;;;;;;8.70;2.58;;;;;;;14.90;74.05;102089.53;5099175;28;20054;-52
2021/09/28 01:35:47;;;;;;;8.00;2.58;;;;;;;14.89;73.78;102087.91;5113435;28;20044;-52
2021/09/28 01:38:15;;;;;;;8.02;2.50;;;;;;;14.88;73.63;102086.25;5113356;28;20039;-50
2021/09/28 01:40:42;;;;;;;9.55;3.10;;;;;;;14.89;73.28;102087.91;5103086;28;20047;-52
2021/09/28 01:43:12;;;;;;;9.63;3.00;;;;;;;14.86;73.49;102087.59;5108995;28;20401;-52
2021/09/28 01:45:40;;;;;;;12.60;3.22;;;;;;;14.82;73.41;102081.00;5111877;28;20421;-51
2021/09/28 01:48:08;;;;;;;10.18;2.70;;;;;;;14.83;73.94;102085.41;5112978;28;20097;-56
2021/09/28 01:50:36;;;;;;;5.70;2.30;;;;;;;14.80;73.43;102089.50;5109679;28;20049;-53
2021/09/28 01:53:04;;;;;;;8.65;2.60;;;;;;;14.80;74.29;102095.00;5113162;28;20100;-51
2021/09/28 01:55:32;;;;;;;10.48;3.00;;;;;;;14.78;73.60;102091.69;5112225;28;20050;-52
2021/09/28 01:58:00;;;;;;;8.80;2.40;;;;;;;14.80;73.65;102089.50;5112312;28;20051;-51
2021/09/28 02:00:28;;;;;;;8.07;2.80;;;;;;;14.73;73.24;102083.41;5108708;28;20039;-53
2021/09/28 02:02:58;;;;;;;10.68;2.83;;;;;;;14.70;73.58;102086.69;5111653;28;20039;-53
2021/09/28 02:05:26;;;;;;;8.30;2.60;;;;;;;14.70;73.98;102092.19;5112353;28;20516;-48
2021/09/28 02:07:54;;;;;;;8.25;3.25;;;;;;;14.67;73.60;102089.94;5099984;28;20550;-53
2021/09/28 02:10:21;;;;;;;10.50;2.70;;;;;;;14.65;73.48;102092.16;5108070;28;20097;-50
2021/09/28 02:12:50;;;;;;;8.55;2.50;;;;;;;14.66;74.08;102094.63;5112354;28;20421;-53
2021/09/28 02:15:18;;;;;;;9.75;3.00;;;;;;;14.67;73.95;102096.28;5112888;28;20473;-53
2021/09/28 02:17:45;;;;;;;10.85;3.00;;;;;;;14.69;73.28;102098.75;5111039;28;20086;-55
2021/09/28 02:20:13;;;;;;;10.60;3.20;;;;;;;14.68;73.93;102099.84;5104350;28;20032;-51
2021/09/28 02:22:41;;;;;;;9.52;2.88;;;;;;;14.69;74.12;102105.06;5107311;28;20123;-54
2021/09/28 02:25:09;;;;;;;9.95;2.85;;;;;;;14.69;74.19;102098.75;5112027;28;20039;-55
2021/09/28 02:27:37;;;;;;;8.23;2.83;;;;;;;14.64;74.10;102098.72;5111964;28;20051;-53
2021/09/28 02:30:05;;;;;;;9.48;2.78;;;;;;;14.63;73.39;102106.13;5095480;28;20057;-52
2021/09/28 02:32:34;;;;;;;7.43;2.65;;;;;;;14.61;73.22;102100.06;5104595;28;20035;-51
2021/09/28 02:35:03;;;;;;;11.45;3.00;;;;;;;14.60;73.27;102105.81;5111822;28;20041;-55
2021/09/28 02:37:31;;;;;;;11.18;2.97;;;;;;;14.58;73.47;102105.28;5112184;28;20123;-53
2021/09/28 02:39:59;;;;;;;10.43;2.67;;;;;;;14.55;73.72;102103.03;5111794;28;20032;-53
2021/09/28 02:42:26;;;;;;;9.20;2.88;;;;;;;14.54;74.13;102101.41;5108424;28;20525;-54
2021/09/28 02:44:55;;;;;;;10.63;2.75;;;;;;;14.53;73.52;102105.19;5112004;28;20054;-57
2021/09/28 02:47:24;;;;;;;8.88;3.20;;;;;;;14.49;73.43;102102.97;5112223;28;20062;-51
2021/09/28 02:49:51;;;;;;;11.32;3.20;;;;;;;14.52;74.11;102106.28;5111973;28;20054;-50
2021/09/28 02:52:19;;;;;;;11.05;3.38;;;;;;;14.51;73.58;102101.91;5108782;28;20464;-51
2021/09/28 02:54:47;;;;;;;11.93;3.17;;;;;;;14.48;73.37;102108.75;5111880;28;20042;-51
2021/09/28 02:57:15;;;;;;;8.93;2.55;;;;;;;14.45;74.09;102121.03;5111732;28;20032;-53
2021/09/28 02:59:42;;;;;;;7.07;2.55;;;;;;;14.44;73.99;102105.69;5111860;28;20399;-53
2021/09/28 03:02:10;;;;;;;8.07;2.65;;;;;;;14.43;73.76;102120.50;5108479;28;21504;-55
2021/09/28 03:04:38;;;;;;;8.80;2.67;;;;;;;14.41;73.74;102119.94;5111857;28;20085;-52
2021/09/28 03:07:05;;;;;;;8.02;2.72;;;;;;;14.43;73.77;102123.22;5111284;28;20054;-52
2021/09/28 03:09:33;;;;;;;8.75;2.60;;;;;;;14.44;74.43;102115.81;5111493;28;20051;-56
2021/09/28 03:12:02;;;;;;;8.77;2.45;;;;;;;14.44;74.24;102124.88;5111031;28;20505;-56
2021/09/28 03:14:29;;;;;;;9.10;2.72;;;;;;;14.48;74.86;102120.53;5108878;28;20046;-53
2021/09/28 03:16:57;;;;;;;9.35;2.53;;;;;;;14.44;73.31;102127.63;5111733;28;20047;-50
2021/09/28 03:19:25;;;;;;;7.00;2.53;;;;;;;14.42;74.10;102127.06;5111523;28;20050;-56
2021/09/28 03:21:53;;;;;;;8.95;2.45;;;;;;;14.38;73.54;102123.19;5110515;28;20035;-50
2021/09/28 03:24:21;;;;;;;7.50;2.75;;;;;;;14.38;74.10;102131.41;5103475;28;20088;-53
2021/09/28 03:26:49;;;;;;;7.72;2.47;;;;;;;14.33;73.77;102125.88;5104331;28;20040;-54
2021/09/28 03:29:16;;;;;;;8.80;2.83;;;;;;;14.31;73.55;102125.34;5111560;28;20055;-52
2021/09/28 03:31:44;;;;;;;9.80;2.72;;;;;;;14.30;73.99;102123.66;5110109;28;20109;-52
2021/09/28 03:34:12;;;;;;;10.30;2.55;;;;;;;14.26;73.45;102128.84;5106372;28;20032;-50
2021/09/28 03:36:40;;;;;;;8.55;2.50;;;;;;;14.20;73.89;102123.56;5111569;28;20527;-53
2021/09/28 03:39:07;;;;;;;7.43;2.58;;;;;;;14.21;74.19;102130.69;5110889;28;20058;-55
2021/09/28 03:41:35;;;;;;;10.90;3.10;;;;;;;14.20;73.88;102129.06;5111299;28;20036;-53
2021/09/28 03:44:02;;;;;;;7.35;2.15;;;;;;;14.16;73.77;102122.44;5110904;28;20382;-54
2021/09/28 03:46:30;;;;;;;8.50;2.80;;;;;;;14.18;73.52;102131.22;5108854;28;20043;-51
2021/09/28 03:48:57;;;;;;;8.05;2.10;;;;;;;14.16;73.77;102127.91;5101144;28;20043;-53
2021/09/28 03:51:25;;;;;;;9.30;2.88;;;;;;;14.19;74.54;102125.50;5111511;28;20048;-53
2021/09/28 03:53:53;;;;;;;8.05;2.47;;;;;;;14.17;73.79;102129.59;5110994;28;20039;-54
2021/09/28 03:56:21;;;;;;;11.05;3.05;;;;;;;14.15;73.81;102131.75;5100296;28;20078;-54
2021/09/28 03:58:49;;;;;;;10.43;2.45;;;;;;;14.16;74.26;102133.41;5109960;28;20040;-51
2021/09/28 04:01:19;;;;;;;9.45;2.65;;;;;;;14.16;74.05;102136.97;5110555;28;20028;-53
2021/09/28 04:03:47;;;;;;;9.18;3.17;;;;;;;14.16;73.16;102142.44;5111078;28;20044;-53
2021/09/28 04:06:14;;;;;;;8.40;2.67;;;;;;;14.15;73.99;102142.72;5105586;28;20490;-53
2021/09/28 04:08:42;;;;;;;9.57;2.70;;;;;;;14.12;73.84;102148.69;5112508;28;20060;-52
2021/09/28 04:11:10;;;;;;;10.07;2.45;;;;;;;14.11;73.83;102147.06;5115083;28;20036;-54
2021/09/28 04:13:42;;;;;;;6.95;2.55;;;;;;;14.10;74.20;102142.69;5113627;28;20043;-53
2021/09/28 04:16:10;;;;;;;10.40;3.00;;;;;;;14.12;75.25;102149.56;5111432;28;21030;-52
2021/09/28 04:18:38;;;;;;;10.93;2.97;;;;;;;14.13;74.21;102144.88;5114209;28;20538;-52
2021/09/28 04:21:08;;;;;;;6.40;2.58;;;;;;;14.13;74.29;102139.41;5114479;28;20050;-53
2021/09/28 04:23:36;;;;;;;9.15;2.95;;;;;;;14.13;74.30;102144.88;5113478;28;20118;-53
2021/09/28 04:26:03;;;;;;;11.70;2.88;;;;;;;14.10;73.76;102145.41;5111066;27;20108;-54
2021/09/28 04:28:32;;;;;;;10.73;2.90;;;;;;;14.06;73.52;102143.19;5103381;28;20046;-53
2021/09/28 04:31:00;;;;;;;8.77;2.47;;;;;;;14.03;73.70;102143.69;5107806;28;20402;-50
2021/09/28 04:33:28;;;;;;;8.00;2.45;;;;;;;14.01;74.09;102148.59;5114374;28;20509;-53
2021/09/28 04:35:57;;;;;;;13.88;3.47;;;;;;;14.00;73.94;102146.97;5112342;28;20043;-53
2021/09/28 04:38:25;;;;;;;9.52;2.83;;;;;;;13.98;74.02;102143.66;5101551;28;20078;-54
2021/09/28 04:40:52;;;;;;;6.60;2.38;;;;;;;14.00;73.73;102149.72;5114757;28;20043;-53
2021/09/28 04:43:20;;;;;;;9.23;3.08;;;;;;;14.00;73.60;102148.88;5114194;28;20043;-54
2021/09/28 04:45:47;;;;;;;14.13;2.80;;;;;;;13.99;73.75;102152.69;5114160;28;20050;-52
2021/09/28 04:48:15;;;;;;;7.55;2.65;;;;;;;13.99;73.66;102156.25;5106055;28;20038;-53
2021/09/28 04:50:43;;;;;;;10.25;2.80;;;;;;;13.98;73.74;102160.09;5107896;28;20063;-51
2021/09/28 04:53:10;;;;;;;9.10;2.70;;;;;;;13.96;73.39;102151.31;5110568;28;20043;-52
2021/09/28 04:55:38;;;;;;;7.70;2.85;;;;;;;13.95;73.46;102157.03;5114458;28;20050;-52
2021/09/28 04:58:05;;;;;;;10.18;2.50;;;;;;;13.90;73.67;102163.28;5110246;28;20068;-53
2021/09/28 05:00:33;;;;;;;7.65;2.67;;;;;;;13.86;74.07;102164.91;5107506;28;20032;-52
2021/09/28 05:03:01;;;;;;;10.48;3.15;;;;;;;13.84;74.09;102159.66;5113975;28;20152;-52
2021/09/28 05:05:30;;;;;;;10.48;2.90;;;;;;;13.84;74.11;102167.06;5113467;28;20039;-53
2021/09/28 05:07:58;;;;;;;8.90;2.78;;;;;;;13.82;74.09;102163.75;5111818;28;20048;-52
2021/09/28 05:10:25;;;;;;;10.65;3.08;;;;;;;13.83;74.65;102157.19;5110801;28;20039;-52
2021/09/28 05:12:53;;;;;;;11.45;3.15;;;;;;;13.76;73.79;102160.13;5114002;28;20032;-52
2021/09/28 05:15:21;;;;;;;11.63;3.05;;;;;;;13.73;73.71;102157.88;5113652;28;20056;-52
2021/09/28 05:17:48;;;;;;;11.27;3.10;;;;;;;13.74;73.71;102169.69;5113098;28;20040;-53
2021/09/28 05:20:16;;;;;;;10.27;2.90;;;;;;;13.71;73.60;102161.97;5100449;28;20048;-49
2021/09/28 05:22:43;;;;;;;12.82;3.08;;;;;;;13.66;73.55;102168.22;5111216;28;20043;-52
2021/09/28 05:25:11;;;;;;;9.80;3.13;;;;;;;13.63;73.46;102164.06;5113542;28;20555;-54
2021/09/28 05:27:39;;;;;;;11.90;2.75;;;;;;;13.61;73.84;102166.25;5113322;28;20494;-56
2021/09/28 05:30:07;;;;;;;11.48;3.00;;;;;;;13.60;74.11;102163.78;5106277;28;20032;-53
2021/09/28 05:32:35;;;;;;;7.63;2.50;;;;;;;13.60;73.64;102167.34;5095567;28;20115;-56
2021/09/28 05:35:03;;;;;;;12.35;3.33;;;;;;;13.61;73.96;102163.53;5110656;28;20051;-56
2021/09/28 05:37:31;;;;;;;11.35;3.05;;;;;;;13.62;73.67;102173.38;5109389;28;20043;-54
2021/09/28 05:39:58;;;;;;;8.95;3.17;;;;;;;13.61;73.50;102177.22;5108948;28;20048;-55
2021/09/28 05:42:26;;;;;;;10.80;4.47;;;;;;;13.59;73.56;102173.09;5108908;28;20401;-53
2021/09/28 05:44:53;;;;;;;14.57;4.80;;;;;;;13.56;73.80;102177.13;5109102;28;20485;-53
2021/09/28 05:47:21;;;;;;;9.70;3.45;;;;;;;13.56;74.16;102174.38;5110742;28;20493;-52
2021/09/28 05:49:49;;;;;;;12.30;3.27;;;;;;;13.54;73.82;102175.72;4393304;28;10000392;-54
2021/09/28 05:52:17;;;;;;;7.88;2.80;;;;;;;13.56;74.10;102173.56;5107805;28;20297;-58
2021/09/28 05:54:48;;;;;;;12.25;4.03;;;;;;;13.57;73.82;102178.81;5106160;28;20047;-57
2021/09/28 05:57:23;;;;;;;12.02;3.75;;;;;;;13.57;73.83;102181.53;5108404;28;20073;-54
2021/09/28 05:59:51;;;;;;;9.77;3.13;;;;;;;13.56;73.93;102179.03;5107192;28;20043;-54
2021/09/28 06:02:18;;;;;;;9.27;3.08;;;;;;;13.53;73.59;102180.38;5101474;28;20028;-54
2021/09/28 06:04:47;;;;;;;12.07;3.30;;;;;;;13.51;73.95;102184.47;5101759;28;20048;-55
2021/09/28 06:07:19;;;;;;;13.73;3.63;;;;;;;13.50;74.01;102175.44;5108296;28;20047;-57
2021/09/28 06:09:48;;;;;;;11.48;3.45;;;;;;;13.50;74.33;102182.81;5106988;28;20414;-56
2021/09/28 06:12:16;;;;;;;21.17;3.25;;;;;;;13.50;74.33;102186.38;5107512;28;20136;-54
2021/09/28 06:14:45;;;;;;;14.85;3.47;;;;;;;13.49;74.71;102179.22;5094437;28;20486;-54
2021/09/28 06:17:12;;;;;;;7.00;3.03;;;;;;;13.49;74.37;102189.34;5104394;28;20043;-53
2021/09/28 06:19:40;;;;;;;9.95;3.35;;;;;;;13.49;75.35;102195.66;5110337;28;20047;-53
2021/09/28 06:22:08;;;;;;;10.60;3.35;;;;;;;13.49;74.48;102197.56;5106920;28;20036;-53
2021/09/28 06:24:35;;;;;;;8.25;2.88;;;;;;;13.48;74.44;102194.00;5109590;28;20655;-55
2021/09/28 06:27:05;;;;;;;13.05;3.40;;;;;;;13.48;74.69;102198.66;5110302;28;20097;-53
2021/09/28 06:29:32;;;;;;;10.65;3.70;;;;;;;13.51;74.70;102203.63;5109949;28;20032;-53
2021/09/28 06:32:00;;;;;;;13.07;4.05;;;;;;;13.52;74.76;102197.91;5107775;28;20032;-53
2021/09/28 06:34:28;;;;;;;10.27;3.60;;;;;;;13.50;74.77;102200.06;5106696;28;20044;-54
2021/09/28 06:36:55;;;;;;;15.80;4.13;;;;;;;13.44;74.25;102198.34;5112309;28;20486;-55
2021/09/28 06:39:23;;;;;;;15.52;3.70;;;;;;;13.39;74.50;102206.47;5112164;28;20064;-54
2021/09/28 06:41:51;;;;;;;17.08;8.68;;;;;;;13.39;74.93;102203.75;5105799;28;20044;-52
2021/09/28 06:44:18;;;;;;;14.40;4.53;;;;;;;13.40;74.94;102203.50;5109367;28;20046;-52
2021/09/28 06:46:46;;;;;;;15.55;4.55;;;;;;;13.41;74.91;102207.88;5076117;28;20395;-52
2021/09/28 06:49:13;;;;;;;14.10;3.67;;;;;;;13.42;74.29;102200.50;5102493;28;20136;-51
2021/09/28 06:51:41;;;;;;;13.90;4.07;;;;;;;13.43;74.83;102202.16;5111186;28;20032;-50
2021/09/28 06:54:09;;;;;;;13.90;3.70;;;;;;;13.45;74.72;102208.22;5110466;28;20047;-51
2021/09/28 06:56:37;;;;;;;10.90;3.53;;;;;;;13.47;75.08;102214.28;5111724;28;20593;-50
2021/09/28 06:59:08;;;;;;;9.77;3.38;;;;;;;13.51;75.32;102201.72;5111654;28;20054;-50
2021/09/28 07:01:39;;;;;;;14.65;3.80;;;;;;;13.56;76.14;102212.72;5111482;28;20513;-49
2021/09/28 07:04:07;;;;;;;11.82;3.65;;;;;;;13.58;75.49;102209.75;5107820;28;20040;-48
2021/09/28 07:06:35;;;;;;;12.75;3.28;;;;;;;13.65;76.81;102213.13;5111530;28;20414;-47
2021/09/28 07:09:03;;;;;;;13.85;3.78;;;;;;;13.63;75.65;102218.84;5111864;28;20042;-50
2021/09/28 07:11:30;;;;;;;15.27;3.83;;;;;;;13.67;75.54;102213.72;5111692;28;20414;-45
2021/09/28 07:13:58;;;;;;;16.98;4.13;;;;;;;13.68;75.69;102217.25;5103413;28;20097;-48
2021/09/28 07:16:26;;;;;;;18.13;4.80;;;;;;;13.72;76.20;102219.25;5102609;28;20032;-47
2021/09/28 07:18:54;;;;;;;9.95;3.72;;;;;;;13.71;75.41;102216.75;5111210;28;20071;-48
2021/09/28 07:21:21;;;;;;;12.32;3.90;;;;;;;13.74;75.67;102214.34;5111439;28;20118;-47
2021/09/28 07:23:49;;;;;;;16.30;4.40;;;;;;;13.74;75.45;102219.81;5108584;28;20039;-49
2021/09/28 07:26:17;;;;;;;15.15;4.43;;;;;;;13.72;75.38;102221.97;5111544;28;20371;-45
2021/09/28 07:28:44;;;;;;;16.42;4.30;;;;;;;13.77;76.49;102213.00;5111531;28;20527;-48
2021/09/28 07:31:12;;;;;;;12.25;4.15;;;;;;;13.80;77.00;102220.69;5110769;28;20043;-47
2021/09/28 07:33:40;;;;;;;18.33;4.28;;;;;;;13.84;78.95;102219.13;5107995;28;20147;-47
2021/09/28 07:36:09;;;;;;;11.27;4.03;;;;;;;13.86;77.11;102219.69;5111711;28;20052;-49
2021/09/28 07:38:40;;;;;;;12.13;3.83;;;;;;;13.84;77.01;102222.69;5110165;28;20041;-48
2021/09/28 07:41:08;;;;;;;13.73;4.15;;;;;;;13.83;77.54;102226.50;5098297;28;20040;-47
2021/09/28 07:43:35;;;;;;;15.48;4.43;;;;;;;13.83;77.29;102223.78;5107514;28;20498;-49
2021/09/28 07:46:03;;;;;;;17.67;5.18;;;;;;;13.93;78.46;102220.31;5106788;28;20064;-48
2021/09/28 07:48:31;;;;;;;12.73;4.38;;;;;;;13.93;78.22;102217.59;5113633;28;20127;-47
2021/09/28 07:50:59;;;;;;;20.85;4.90;;;;;;;13.97;78.48;102224.19;5104027;28;20075;-47
2021/09/28 07:53:27;;;;;;;15.63;4.70;;;;;;;13.97;78.33;102224.19;5102125;28;20394;-48
2021/09/28 07:55:56;;;;;;;14.40;4.28;;;;;;;14.00;78.50;102223.69;5097208;28;20036;-48
2021/09/28 07:58:23;;;;;;;9.30;3.88;;;;;;;14.02;77.84;102229.75;5099101;28;20047;-48
2021/09/28 08:00:53;;;;;;;14.15;4.10;;;;;;;13.99;76.70;102238.47;5095572;28;20051;-48
2021/09/28 08:03:26;;;;;;;16.10;4.00;;;;;;;13.90;76.47;102231.78;5098125;28;20040;-48
2021/09/28 08:05:54;;;;;;;13.00;4.22;;;;;;;13.87;76.49;102229.56;5106820;28;20089;-49
2021/09/28 08:08:21;;;;;;;12.93;4.57;;;;;;;13.87;76.67;102232.28;5097514;28;20199;-48
2021/09/28 08:10:49;;;;;;;13.85;4.55;;;;;;;13.87;76.97;102232.28;5114748;28;20093;-46
2021/09/28 08:13:17;;;;;;;13.75;4.35;;;;;;;13.92;76.61;102235.09;5112956;28;20066;-48
2021/09/28 08:15:44;;;;;;;16.30;4.80;;;;;;;13.99;77.28;102227.50;5112065;28;20490;-49
2021/09/28 08:18:12;;;;;;;15.55;4.55;;;;;;;14.06;78.27;102233.63;5113253;28;20044;-47
2021/09/28 08:20:39;;;;;;;16.85;4.88;;;;;;;14.11;78.44;102234.78;5114300;28;20409;-49
2021/09/28 08:23:07;;;;;;;13.45;4.43;;;;;;;14.20;78.82;102225.00;5113335;28;20168;-48
2021/09/28 08:31:09;;;;;;;15.13;4.03;;;;;;;14.22;78.66;102231.88;5111460;27;20101;-47
2021/09/28 08:33:37;;;;;;;13.93;4.07;;;;;;;14.22;77.91;102228.31;5101735;28;20072;-50
2021/09/28 08:36:06;;;;;;;15.15;4.38;;;;;;;14.21;78.10;102229.38;5109375;28;20521;-52
2021/09/28 08:38:34;;;;;;;11.85;4.20;;;;;;;14.24;77.74;102228.91;5109694;28;20043;-53
2021/09/28 08:41:02;;;;;;;11.75;4.07;;;;;;;14.24;77.71;102228.91;5100662;28;20478;-50
2021/09/28 08:43:30;;;;;;;14.90;5.28;;;;;;;14.23;77.71;102225.31;5101324;28;20050;-50
2021/09/28 08:45:57;;;;;;;14.65;4.93;;;;;;;14.26;77.98;102232.19;5104905;28;20045;-51
2021/09/28 08:48:27;;;;;;;13.27;4.90;;;;;;;14.24;78.17;102228.91;5102283;28;20491;-51
2021/09/28 08:50:55;;;;;;;14.45;4.13;;;;;;;14.25;77.91;102225.06;5104004;27;20044;-47
2021/09/28 08:53:22;;;;;;;16.65;4.53;;;;;;;14.28;78.17;102224.53;5104637;28;20055;-48
2021/09/28 08:55:50;;;;;;;13.90;5.20;;;;;;;14.30;78.40;102216.06;5100911;28;20051;-47
2021/09/28 08:58:20;;;;;;;12.85;4.20;;;;;;;14.39;79.24;102222.72;5106992;28;20047;-49
2021/09/28 09:00:50;;;;;;;10.38;3.88;;;;;;;14.38;78.85;102221.91;5101289;27;20047;-45
2021/09/28 09:03:29;;;;;;;10.63;3.80;;;;;;;14.45;79.51;102225.25;5105588;28;20095;-48
2021/09/28 09:05:58;;;;;;;13.20;4.30;;;;;;;14.45;78.70;102224.41;5102241;28;20146;-48
2021/09/28 09:08:28;;;;;;;13.95;4.70;;;;;;;14.51;79.34;102225.31;5100790;28;20055;-46
2021/09/28 09:11:16;;;;;;;10.68;3.70;;;;;;;14.51;78.55;102223.41;5109108;28;20071;-42
2021/09/28 09:13:50;;;;;;;12.75;4.10;;;;;;;14.61;79.94;102233.66;5099242;28;20111;-46
2021/09/28 09:16:19;;;;;;;11.70;3.95;;;;;;;14.61;78.79;102223.50;5104983;28;20035;-46
2021/09/28 09:18:51;;;;;;;11.48;4.10;;;;;;;14.72;80.65;102224.44;5106094;28;20043;-48
2021/09/28 09:21:19;;;;;;;10.50;3.50;;;;;;;14.77;80.39;102227.22;5094639;28;20139;-48
2021/09/28 09:23:52;;;;;;;12.05;3.92;;;;;;;14.78;80.04;102222.56;5098789;28;20457;-49
2021/09/28 09:26:27;;;;;;;16.52;4.43;;;;;;;14.75;79.58;102221.16;5099531;28;20114;-45
2021/09/28 09:28:59;;;;;;;13.73;4.10;;;;;;;14.86;79.70;102220.16;5105095;28;20043;-49
2021/09/28 09:31:34;;;;;;;14.52;4.03;;;;;;;14.82;78.32;102219.03;5107539;28;20146;-46
2021/09/28 09:34:17;;;;;;;21.88;4.45;;;;;;;14.79;78.13;102218.72;5108337;28;20043;-47
2021/09/28 09:37:05;;;;;;;16.60;4.72;;;;;;;14.80;78.18;102214.91;5105626;28;20044;-50
2021/09/28 09:40:02;;;;;;;14.98;4.60;;;;;;;14.86;78.54;102214.69;5109835;28;20054;-51
2021/09/28 09:42:30;;;;;;;15.73;4.47;;;;;;;14.84;77.61;102211.38;5043241;28;20072;-52
2021/09/28 09:45:23;;;;;;;18.88;6.20;;;;;;;14.93;78.64;102210.88;5050275;28;20065;-50
2021/09/28 09:47:51;;;;;;;21.00;8.25;;;;;;;15.00;79.57;102201.31;5048622;28;20557;-50
2021/09/28 09:50:20;;;;;;;17.77;4.50;;;;;;;14.99;77.63;102210.66;5048847;28;20516;-50
2021/09/28 09:52:57;;;;;;;13.82;3.53;;;;;;;14.97;77.52;102207.34;5050309;28;20053;-51
2021/09/28 09:55:30;;;;;;;15.15;3.63;;;;;;;14.98;77.63;102199.91;5037699;28;20116;-50
2021/09/28 09:57:59;;;;;;;22.55;9.68;;;;;;;15.25;83.31;102200.66;5048196;28;20412;-49
2021/09/28 10:00:28;;;;;;;19.13;5.93;;;;;;;15.28;81.61;102202.06;5045688;28;20562;-51
2021/09/28 10:02:56;;;;;;;16.30;6.75;;;;;;;15.37;81.96;102205.09;5050008;28;20168;-52
2021/09/28 10:05:25;;;;;;;15.85;4.60;;;;;;;15.27;79.07;102201.22;5049836;28;20423;-50
2021/09/28 10:07:53;;;;;;;22.77;9.65;;;;;;;15.33;84.19;102202.91;5043940;28;20053;-47
2021/09/28 10:10:21;;;;;;;20.33;7.68;;;;;;;15.48;83.18;102201.31;5050549;28;20053;-49
2021/09/28 10:12:48;;;;;;;23.58;8.82;;;;;;;15.52;83.95;102199.69;5050812;28;20052;-49
2021/09/28 10:15:17;;;;;;;22.10;8.25;;;;;;;15.51;84.83;102196.13;5050248;28;20041;-53
2021/09/28 10:17:48;;;;;;;21.40;8.00;;;;;;;15.54;85.89;102189.28;5048182;28;20038;-49
2021/09/28 10:20:22;;;;;;;22.08;6.18;;;;;;;15.53;82.61;102191.19;5108413;28;20433;-50
2021/09/28 10:22:53;;;;;;;14.45;3.72;;;;;;;15.43;77.98;102187.56;5112536;28;20048;-52
2021/09/28 10:25:21;;;;;;;13.82;4.47;;;;;;;15.43;77.55;102195.81;5110386;28;20448;-51
2021/09/28 10:27:52;;;;;;;17.92;6.15;;;;;;;15.47;80.65;102181.28;5112214;28;20438;-52
2021/09/28 10:30:35;;;;;;;17.10;5.95;;;;;;;15.63;84.57;102164.84;5103275;28;20043;-53
2021/09/28 10:33:05;;;;;;;20.23;7.82;;;;;;;15.95;85.07;102165.53;5112035;28;20046;-51
2021/09/28 10:35:34;;;;;;;20.52;6.18;;;;;;;16.03;81.56;102172.41;5110271;28;20047;-50
2021/09/28 10:38:04;;;;;;;15.80;4.18;;;;;;;15.87;76.59;102173.47;5110259;28;20035;-53
2021/09/28 10:40:36;;;;;;;16.67;4.85;;;;;;;15.97;78.87;102163.34;5111860;28;20046;-51
2021/09/28 10:43:08;;;;;;;14.85;4.20;;;;;;;15.87;75.90;102163.28;5112250;28;20120;-46
2021/09/28 10:45:36;;;;;;;15.98;3.40;;;;;;;15.77;74.00;102157.78;5112333;28;20050;-49
2021/09/28 10:48:18;;;;;;;17.33;5.80;;;;;;;15.83;79.25;102153.97;5109768;28;20051;-49
2021/09/28 10:50:46;;;;;;;11.70;3.92;;;;;;;15.84;75.50;102152.03;5102862;28;20126;-50
2021/09/28 10:53:20;;;;;;;12.57;3.88;;;;;;;15.77;71.49;102158.59;5111843;28;20036;-48
2021/09/28 10:55:59;;;;;;;14.00;3.63;;;;;;;15.80;73.54;102153.66;5111778;28;20044;-49
2021/09/28 10:58:28;;;;;;;15.80;3.65;;;;;;;15.91;72.16;102147.91;5110341;28;20414;-49
2021/09/28 11:00:55;;;;;;;11.73;4.45;;;;;;;16.01;72.87;102144.38;5111979;28;20069;-48
2021/09/28 11:03:42;;;;;;;17.98;5.30;;;;;;;16.14;80.36;102143.84;5111767;28;20109;-49
2021/09/28 11:06:11;;;;;;;14.73;4.63;;;;;;;16.19;76.66;102137.53;5112045;28;20067;-49
2021/09/28 11:08:39;;;;;;;13.07;3.53;;;;;;;16.22;72.32;102128.72;5109393;28;20120;-52
2021/09/28 11:11:08;;;;;;;11.60;4.35;;;;;;;16.30;77.36;102128.16;5111993;28;20044;-49
2021/09/28 11:13:37;;;;;;;10.73;3.75;;;;;;;16.11;70.74;102125.13;5111889;28;20100;-50
2021/09/28 11:16:14;;;;;;;13.90;4.35;;;;;;;16.16;75.34;102130.66;5111667;28;20036;-49
2021/09/28 11:18:57;;;;;;;15.43;4.07;;;;;;;16.17;78.40;102118.53;5114297;28;20046;-50
2021/09/28 11:21:25;;;;;;;10.82;3.05;;;;;;;16.09;71.26;102110.84;5102430;28;20482;-48
2021/09/28 11:23:54;;;;;;;11.93;3.30;;;;;;;16.08;71.15;102103.69;5115624;28;20105;-47
2021/09/28 11:26:37;;;;;;;15.25;3.85;;;;;;;16.11;73.66;102103.13;5114682;28;20443;-49
2021/09/28 11:29:06;;;;;;;13.88;3.10;;;;;;;16.32;69.54;102108.66;5099537;28;20158;-50
2021/09/28 11:31:36;;;;;;;13.90;3.58;;;;;;;16.38;71.26;102118.56;5115811;28;20514;-48
2021/09/28 11:34:04;;;;;;;10.25;3.50;;;;;;;16.30;70.09;102111.66;5116029;28;20796;-49